createdAt,value
2023-04-02T00:00:32.494Z,99.99
2023-04-02T00:01:32.422Z,99.99
2023-04-02T00:02:32.696Z,99.99
2023-04-02T00:03:32.448Z,99.99
2023-04-02T00:04:32.397Z,99.99
2023-04-02T00:05:32.510Z,99.99
2023-04-02T00:06:32.382Z,99.99
2023-04-02T00:07:32.364Z,99.99
2023-04-02T00:08:32.377Z,99.99
2023-04-02T00:09:32.360Z,99.99
2023-04-02T00:10:33.381Z,99.99
2023-04-02T00:11:32.340Z,99.99
2023-04-02T00:12:32.335Z,99.99
2023-04-02T00:13:32.327Z,99.99
2023-04-02T00:14:32.318Z,99.99
2023-04-02T00:15:32.653Z,99.99
2023-04-02T00:16:32.374Z,99.99
2023-04-02T00:17:32.291Z,99.99
2023-04-02T00:18:32.310Z,99.99
2023-04-02T00:19:32.271Z,99.99
2023-04-02T00:20:32.305Z,99.99
2023-04-02T00:21:32.260Z,99.99
2023-04-02T00:22:32.259Z,99.99
2023-04-02T00:23:32.260Z,99.99
2023-04-02T00:24:32.278Z,99.99
2023-04-02T00:25:32.379Z,99.99
2023-04-02T00:26:32.262Z,99.99
2023-04-02T00:27:32.267Z,99.99
2023-04-02T00:28:32.222Z,99.99
2023-04-02T00:29:32.194Z,99.99
2023-04-02T00:30:32.266Z,99.99
2023-04-02T00:31:32.210Z,99.99
2023-04-02T00:32:32.193Z,99.99
2023-04-02T00:33:32.160Z,99.99
2023-04-02T00:34:32.168Z,99.99
2023-04-02T00:35:32.209Z,99.99
2023-04-02T00:36:32.200Z,99.99
2023-04-02T00:37:32.144Z,99.99
2023-04-02T00:38:32.150Z,99.99
2023-04-02T00:39:32.149Z,99.99
2023-04-02T00:40:32.158Z,99.96
2023-04-02T00:41:32.179Z,99.34
2023-04-02T00:42:32.106Z,99.86
2023-04-02T00:43:32.103Z,99.99
2023-04-02T00:44:32.086Z,99.99
2023-04-02T00:45:32.217Z,99.99
2023-04-02T00:46:32.238Z,99.99
2023-04-02T00:47:32.108Z,99.99
2023-04-02T00:48:32.066Z,99.80
2023-04-02T00:49:32.061Z,99.70
2023-04-02T00:50:32.042Z,99.99
2023-04-02T00:51:32.115Z,99.90
2023-04-02T00:52:32.044Z,99.99
2023-04-02T00:53:32.029Z,99.90
2023-04-02T00:54:32.010Z,99.90
2023-04-02T00:55:32.040Z,99.99
2023-04-02T00:56:32.022Z,99.99
2023-04-02T00:57:32.005Z,99.99
2023-04-02T00:58:31.992Z,99.99
2023-04-02T00:59:32.009Z,99.99
2023-04-02T01:00:31.966Z,99.99
2023-04-02T01:01:32.024Z,99.99
2023-04-02T01:02:32.224Z,99.99
2023-04-02T01:03:32.102Z,99.99
2023-04-02T01:04:31.937Z,99.99
2023-04-02T01:05:31.998Z,99.99
2023-04-02T01:06:31.939Z,99.99
2023-04-02T01:07:31.924Z,99.99
2023-04-02T01:08:31.921Z,99.99
2023-04-02T01:09:31.900Z,99.99
2023-04-02T01:10:31.900Z,99.99
2023-04-02T01:11:31.903Z,99.99
2023-04-02T01:12:31.860Z,99.99
2023-04-02T01:13:31.852Z,99.99
2023-04-02T01:14:31.871Z,99.99
2023-04-02T01:15:31.899Z,99.99
2023-04-02T01:16:31.894Z,99.99
2023-04-02T01:17:31.891Z,99.99
2023-04-02T01:18:31.829Z,99.99
2023-04-02T01:19:31.838Z,99.99
2023-04-02T01:20:31.801Z,99.58
2023-04-02T01:21:31.789Z,98.66
2023-04-02T01:22:31.831Z,99.27
2023-04-02T01:23:31.778Z,98.82
2023-04-02T01:24:31.784Z,99.27
2023-04-02T01:25:32.507Z,98.76
2023-04-02T01:26:31.818Z,99.07
2023-04-02T01:27:31.751Z,98.45
2023-04-02T01:28:31.790Z,98.66
2023-04-02T01:29:31.765Z,98.55
2023-04-02T01:30:31.743Z,98.60
2023-04-02T01:31:31.808Z,99.32
2023-04-02T01:32:31.790Z,99.43
2023-04-02T01:33:31.725Z,99.06
2023-04-02T01:34:31.701Z,99.43
2023-04-02T01:35:31.716Z,99.37
2023-04-02T01:36:31.774Z,99.11
2023-04-02T01:37:31.720Z,98.85
2023-04-02T01:38:31.713Z,99.37
2023-04-02T01:39:31.673Z,99.06
2023-04-02T01:40:31.674Z,99.26
2023-04-02T01:41:31.654Z,98.96
2023-04-02T01:42:31.679Z,99.32
2023-04-02T01:43:31.639Z,99.99
2023-04-02T01:44:31.642Z,99.37
2023-04-02T01:45:31.628Z,99.37
2023-04-02T01:46:31.651Z,99.21
2023-04-02T01:47:31.692Z,99.06
2023-04-02T01:48:31.603Z,98.54
2023-04-02T01:49:31.590Z,99.16
2023-04-02T01:50:31.735Z,99.06
2023-04-02T01:51:31.580Z,99.82
2023-04-02T01:52:31.596Z,99.21
2023-04-02T01:53:31.558Z,99.82
2023-04-02T01:54:31.584Z,99.99
2023-04-02T01:55:31.609Z,99.99
2023-04-02T01:56:31.543Z,99.99
2023-04-02T01:57:31.666Z,99.99
2023-04-02T01:58:31.681Z,99.99
2023-04-02T01:59:31.520Z,99.99
2023-04-02T02:00:31.530Z,99.99
2023-04-02T02:01:31.537Z,99.99
2023-04-02T02:02:31.615Z,99.99
2023-04-02T02:03:31.480Z,99.99
2023-04-02T02:04:31.484Z,99.99
2023-04-02T02:05:31.496Z,99.99
2023-04-02T02:06:31.503Z,99.99
2023-04-02T02:07:31.478Z,99.99
2023-04-02T02:08:32.490Z,99.99
2023-04-02T02:09:31.455Z,99.99
2023-04-02T02:10:31.449Z,99.99
2023-04-02T02:11:31.441Z,99.99
2023-04-02T02:12:31.468Z,99.99
2023-04-02T02:13:31.408Z,99.99
2023-04-02T02:14:31.417Z,99.99
2023-04-02T02:15:31.416Z,99.99
2023-04-02T02:16:31.399Z,99.99
2023-04-02T02:17:31.455Z,99.99
2023-04-02T02:18:31.374Z,99.99
2023-04-02T02:19:31.372Z,99.99
2023-04-02T02:20:31.385Z,99.98
2023-04-02T02:21:31.385Z,99.87
2023-04-02T02:22:31.378Z,99.99
2023-04-02T02:23:31.341Z,99.99
2023-04-02T02:24:31.347Z,99.99
2023-04-02T02:25:31.327Z,99.99
2023-04-02T02:26:31.317Z,99.99
2023-04-02T02:27:31.344Z,99.99
2023-04-02T02:28:31.323Z,99.99
2023-04-02T02:29:31.310Z,99.99
2023-04-02T02:30:31.306Z,99.99
2023-04-02T02:31:31.296Z,99.99
2023-04-02T02:32:31.322Z,99.99
2023-04-02T02:33:31.243Z,99.99
2023-04-02T02:34:32.257Z,99.99
2023-04-02T02:35:31.262Z,99.99
2023-04-02T02:36:31.289Z,99.99
2023-04-02T02:37:31.277Z,99.99
2023-04-02T02:38:31.222Z,99.99
2023-04-02T02:39:31.233Z,99.99
2023-04-02T02:40:31.242Z,99.99
2023-04-02T02:41:31.203Z,99.99
2023-04-02T02:42:31.269Z,99.99
2023-04-02T02:43:31.202Z,99.99
2023-04-02T02:44:31.224Z,99.99
2023-04-02T02:45:31.173Z,99.99
2023-04-02T02:46:31.184Z,99.99
2023-04-02T02:47:31.215Z,99.99
2023-04-02T02:48:31.134Z,99.99
2023-04-02T02:49:31.156Z,99.99
2023-04-02T02:50:31.172Z,99.99
2023-04-02T02:51:31.125Z,99.99
2023-04-02T02:52:31.154Z,99.99
2023-04-02T02:53:31.122Z,99.99
2023-04-02T02:54:31.109Z,99.99
2023-04-02T02:55:31.114Z,99.99
2023-04-02T02:56:31.095Z,99.99
2023-04-02T02:57:31.188Z,99.99
2023-04-02T02:58:31.133Z,99.99
2023-04-02T02:59:31.095Z,99.99
2023-04-02T03:00:31.071Z,99.99
2023-04-02T03:01:31.097Z,99.99
2023-04-02T03:02:31.115Z,99.99
2023-04-02T03:03:31.155Z,99.99
2023-04-02T03:04:31.039Z,99.99
2023-04-02T03:05:31.043Z,99.99
2023-04-02T03:06:31.022Z,99.99
2023-04-02T03:07:31.059Z,99.99
2023-04-02T03:08:31.007Z,99.99
2023-04-02T03:09:30.991Z,99.99
2023-04-02T03:10:30.994Z,99.99
2023-04-02T03:11:30.978Z,99.99
2023-04-02T03:12:30.993Z,99.99
2023-04-02T03:13:30.964Z,99.99
2023-04-02T03:14:30.982Z,99.99
2023-04-02T03:15:31.001Z,99.99
2023-04-02T03:16:30.962Z,99.99
2023-04-02T03:17:31.003Z,99.99
2023-04-02T03:18:30.930Z,99.99
2023-04-02T03:19:30.921Z,99.99
2023-04-02T03:20:30.921Z,99.99
2023-04-02T03:21:30.901Z,99.99
2023-04-02T03:22:30.920Z,99.99
2023-04-02T03:23:30.887Z,99.99
2023-04-02T03:24:30.894Z,99.99
2023-04-02T03:25:30.866Z,99.99
2023-04-02T03:26:30.862Z,99.99
2023-04-02T03:27:31.915Z,99.99
2023-04-02T03:28:30.889Z,99.99
2023-04-02T03:29:30.845Z,99.99
2023-04-02T03:30:30.844Z,99.99
2023-04-02T03:31:30.855Z,99.99
2023-04-02T03:32:30.916Z,99.99
2023-04-02T03:33:30.832Z,99.99
2023-04-02T03:34:30.828Z,99.99
2023-04-02T03:35:30.803Z,99.99
2023-04-02T03:36:30.791Z,99.99
2023-04-02T03:37:30.805Z,99.99
2023-04-02T03:38:30.811Z,99.99
2023-04-02T03:39:30.785Z,99.99
2023-04-02T03:40:30.763Z,99.99
2023-04-02T03:41:30.768Z,99.99
2023-04-02T03:42:31.755Z,99.99
2023-04-02T03:43:30.766Z,99.99
2023-04-02T03:44:30.789Z,99.99
2023-04-02T03:45:30.729Z,99.99
2023-04-02T03:46:30.743Z,99.95
2023-04-02T03:47:30.758Z,99.99
2023-04-02T03:48:30.752Z,99.99
2023-04-02T03:49:30.704Z,99.99
2023-04-02T03:50:30.690Z,99.95
2023-04-02T03:51:30.717Z,99.99
2023-04-02T03:52:30.680Z,99.99
2023-04-02T03:53:30.697Z,99.99
2023-04-02T03:54:30.654Z,99.99
2023-04-02T03:55:30.645Z,99.99
2023-04-02T03:56:30.650Z,99.99
2023-04-02T03:57:30.683Z,99.99
2023-04-02T03:58:30.654Z,99.79
2023-04-02T03:59:30.620Z,99.99
2023-04-02T04:00:30.642Z,99.90
2023-04-02T04:01:30.639Z,99.99
2023-04-02T04:02:30.663Z,99.99
2023-04-02T04:03:30.615Z,99.99
2023-04-02T04:04:30.754Z,99.99
2023-04-02T04:05:30.572Z,99.73
2023-04-02T04:06:30.597Z,99.99
2023-04-02T04:07:30.574Z,99.99
2023-04-02T04:08:30.593Z,99.27
2023-04-02T04:09:30.550Z,99.27
2023-04-02T04:10:30.546Z,98.96
2023-04-02T04:11:31.529Z,99.58
2023-04-02T04:12:30.534Z,99.38
2023-04-02T04:13:30.542Z,99.07
2023-04-02T04:14:30.501Z,99.69
2023-04-02T04:15:30.510Z,98.75
2023-04-02T04:16:30.530Z,99.52
2023-04-02T04:17:30.534Z,99.69
2023-04-02T04:18:30.485Z,99.79
2023-04-02T04:19:30.457Z,98.80
2023-04-02T04:20:30.460Z,98.65
2023-04-02T04:21:30.469Z,98.96
2023-04-02T04:22:30.547Z,99.17
2023-04-02T04:23:30.516Z,99.22
2023-04-02T04:24:30.424Z,99.63
2023-04-02T04:25:30.491Z,99.48
2023-04-02T04:26:30.400Z,99.32
2023-04-02T04:27:30.431Z,99.43
2023-04-02T04:28:30.435Z,99.84
2023-04-02T04:29:30.385Z,99.73
2023-04-02T04:30:30.401Z,99.73
2023-04-02T04:31:30.400Z,99.69
2023-04-02T04:32:30.369Z,99.58
2023-04-02T04:33:30.477Z,99.84
2023-04-02T04:34:30.367Z,99.63
2023-04-02T04:35:30.405Z,99.63
2023-04-02T04:36:30.329Z,99.99
2023-04-02T04:38:04.530Z,99.99
2023-04-02T04:38:30.314Z,99.99
2023-04-02T04:39:30.273Z,99.99
2023-04-02T04:40:30.265Z,99.69
2023-04-02T04:41:30.257Z,99.38
2023-04-02T04:42:30.251Z,99.99
2023-04-02T04:43:30.279Z,99.90
2023-04-02T04:44:30.274Z,99.99
2023-04-02T04:45:31.246Z,99.99
2023-04-02T04:46:30.353Z,99.99
2023-04-02T04:47:30.238Z,99.99
2023-04-02T04:48:30.249Z,99.99
2023-04-02T04:49:30.194Z,99.99
2023-04-02T04:50:30.198Z,99.99
2023-04-02T04:51:30.194Z,99.88
2023-04-02T04:52:30.174Z,99.47
2023-04-02T04:53:30.193Z,99.47
2023-04-02T04:54:30.210Z,99.78
2023-04-02T04:55:30.158Z,99.78
2023-04-02T04:56:30.150Z,99.68
2023-04-02T04:57:30.183Z,99.57
2023-04-02T04:58:30.162Z,99.99
2023-04-02T04:59:30.131Z,99.99
2023-04-02T05:00:30.121Z,99.99
2023-04-02T05:01:30.133Z,99.78
2023-04-02T05:02:30.123Z,99.99
2023-04-02T05:03:30.110Z,99.82
2023-04-02T05:04:30.273Z,99.72
2023-04-02T05:05:30.085Z,99.99
2023-04-02T05:06:30.077Z,99.62
2023-04-02T05:07:30.067Z,99.72
2023-04-02T05:08:30.061Z,99.93
2023-04-02T05:09:30.074Z,99.62
2023-04-02T05:10:30.042Z,99.68
2023-04-02T05:11:30.029Z,99.31
2023-04-02T05:12:30.025Z,99.41
2023-04-02T05:13:30.022Z,99.82
2023-04-02T05:14:30.087Z,99.31
2023-04-02T05:15:30.007Z,99.82
2023-04-02T05:16:30.078Z,99.82
2023-04-02T05:17:30.017Z,99.31
2023-04-02T05:18:29.985Z,98.69
2023-04-02T05:19:30.002Z,98.79
2023-04-02T05:20:29.974Z,99.10
2023-04-02T05:21:29.959Z,98.17
2023-04-02T05:22:29.947Z,98.27
2023-04-02T05:23:29.949Z,97.59
2023-04-02T05:24:29.986Z,98.21
2023-04-02T05:25:29.931Z,97.96
2023-04-02T05:26:29.938Z,97.69
2023-04-02T05:27:29.925Z,97.59
2023-04-02T05:28:29.906Z,97.28
2023-04-02T05:29:29.927Z,97.49
2023-04-02T05:30:29.894Z,97.80
2023-04-02T05:31:29.907Z,98.11
2023-04-02T05:32:29.901Z,96.86
2023-04-02T05:33:29.885Z,97.28
2023-04-02T05:34:29.901Z,97.28
2023-04-02T05:35:29.864Z,97.49
2023-04-02T05:36:29.859Z,97.69
2023-04-02T05:37:29.837Z,97.69
2023-04-02T05:38:29.833Z,97.49
2023-04-02T05:39:29.961Z,97.38
2023-04-02T05:40:29.813Z,96.97
2023-04-02T05:41:29.806Z,97.07
2023-04-02T05:42:29.798Z,97.17
2023-04-02T05:43:29.789Z,96.55
2023-04-02T05:44:29.823Z,97.07
2023-04-02T05:45:29.783Z,97.07
2023-04-02T05:46:29.871Z,97.28
2023-04-02T05:47:29.773Z,97.17
2023-04-02T05:48:29.754Z,96.76
2023-04-02T05:49:29.810Z,96.76
2023-04-02T05:50:29.724Z,96.76
2023-04-02T05:51:30.730Z,97.07
2023-04-02T05:52:29.727Z,96.55
2023-04-02T05:53:29.720Z,96.66
2023-04-02T05:54:29.744Z,97.38
2023-04-02T05:55:29.715Z,96.86
2023-04-02T05:56:29.708Z,97.17
2023-04-02T05:57:41.721Z,97.17
2023-04-02T05:58:36.348Z,96.66
2023-04-02T05:59:31.699Z,96.76
2023-04-02T06:00:29.718Z,97.17
2023-04-02T06:01:29.679Z,97.28
2023-04-02T06:02:29.956Z,97.07
2023-04-02T06:03:29.753Z,96.97
2023-04-02T06:04:29.668Z,97.07
2023-04-02T06:05:29.639Z,96.76
2023-04-02T06:06:29.630Z,96.24
2023-04-02T06:07:29.637Z,96.76
2023-04-02T06:08:29.617Z,96.55
2023-04-02T06:09:29.624Z,95.93
2023-04-02T06:10:29.691Z,96.14
2023-04-02T06:11:29.592Z,96.76
2023-04-02T06:12:29.577Z,97.17
2023-04-02T06:13:29.569Z,96.76
2023-04-02T06:14:29.598Z,96.66
2023-04-02T06:15:29.596Z,97.22
2023-04-02T06:16:29.565Z,96.29
2023-04-02T06:17:29.565Z,97.02
2023-04-02T06:18:29.530Z,97.02
2023-04-02T06:19:29.542Z,97.12
2023-04-02T06:20:29.522Z,97.22
2023-04-02T06:21:29.518Z,97.02
2023-04-02T06:22:29.500Z,97.02
2023-04-02T06:23:29.491Z,97.12
2023-04-02T06:24:29.489Z,96.70
2023-04-02T06:25:29.704Z,97.64
2023-04-02T06:26:29.473Z,97.43
2023-04-02T06:27:29.459Z,97.12
2023-04-02T06:28:29.447Z,96.91
2023-04-02T06:29:29.589Z,97.02
2023-04-02T06:30:29.477Z,96.70
2023-04-02T06:31:29.445Z,97.43
2023-04-02T06:32:29.466Z,97.22
2023-04-02T06:33:29.411Z,97.12
2023-04-02T06:34:29.404Z,97.12
2023-04-02T06:35:29.446Z,97.22
2023-04-02T06:36:29.392Z,96.70
2023-04-02T06:37:29.376Z,97.53
2023-04-02T06:38:29.376Z,96.95
2023-04-02T06:39:29.429Z,96.70
2023-04-02T06:40:29.390Z,97.22
2023-04-02T06:41:29.373Z,97.12
2023-04-02T06:42:29.356Z,96.19
2023-04-02T06:43:29.340Z,96.50
2023-04-02T06:44:29.328Z,95.36
2023-04-02T06:45:29.344Z,95.15
2023-04-02T06:46:29.417Z,95.87
2023-04-02T06:47:29.329Z,95.71
2023-04-02T06:48:29.305Z,95.25
2023-04-02T06:49:29.300Z,95.15
2023-04-02T06:50:29.313Z,95.29
2023-04-02T06:51:29.315Z,95.61
2023-04-02T06:52:29.299Z,95.61
2023-04-02T06:53:29.274Z,95.50
2023-04-02T06:54:29.271Z,95.56
2023-04-02T06:55:29.281Z,95.98
2023-04-02T06:56:29.243Z,95.19
2023-04-02T06:57:29.277Z,95.40
2023-04-02T06:58:29.235Z,95.36
2023-04-02T06:59:29.224Z,95.61
2023-04-02T07:00:29.270Z,95.36
2023-04-02T07:01:29.216Z,95.92
2023-04-02T07:02:29.225Z,95.61
2023-04-02T07:03:29.188Z,96.54
2023-04-02T07:04:29.196Z,95.71
2023-04-02T07:05:29.212Z,95.92
2023-04-02T07:06:29.170Z,96.12
2023-04-02T07:07:29.151Z,96.54
2023-04-02T07:08:29.205Z,96.44
2023-04-02T07:09:29.132Z,96.44
2023-04-02T07:10:29.165Z,96.33
2023-04-02T07:11:30.125Z,97.37
2023-04-02T07:12:29.114Z,96.64
2023-04-02T07:13:29.106Z,96.75
2023-04-02T07:14:29.105Z,96.85
2023-04-02T07:15:29.124Z,96.23
2023-04-02T07:16:29.154Z,97.16
2023-04-02T07:17:29.084Z,97.27
2023-04-02T07:18:30.075Z,97.06
2023-04-02T07:19:29.059Z,97.72
2023-04-02T07:20:29.078Z,97.27
2023-04-02T07:21:29.050Z,97.41
2023-04-02T07:22:29.039Z,98.10
2023-04-02T07:23:29.048Z,97.99
2023-04-02T07:24:29.025Z,98.03
2023-04-02T07:25:29.049Z,97.68
2023-04-02T07:26:28.990Z,97.58
2023-04-02T07:27:28.995Z,97.31
2023-04-02T07:28:28.982Z,97.68
2023-04-02T07:29:28.980Z,97.58
2023-04-02T07:30:29.068Z,97.27
2023-04-02T07:31:29.013Z,97.58
2023-04-02T07:32:28.995Z,97.58
2023-04-02T07:33:28.948Z,96.17
2023-04-02T07:34:28.935Z,97.00
2023-04-02T07:35:28.931Z,97.16
2023-04-02T07:36:28.956Z,97.16
2023-04-02T07:37:28.912Z,97.06
2023-04-02T07:38:28.908Z,96.27
2023-04-02T07:39:28.899Z,96.06
2023-04-02T07:40:28.905Z,95.86
2023-04-02T07:41:28.905Z,95.96
2023-04-02T07:42:29.883Z,96.12
2023-04-02T07:43:28.879Z,95.65
2023-04-02T07:44:28.872Z,95.75
2023-04-02T07:45:28.866Z,96.06
2023-04-02T07:46:28.881Z,95.23
2023-04-02T07:47:28.902Z,95.86
2023-04-02T07:48:28.840Z,95.44
2023-04-02T07:49:28.831Z,95.48
2023-04-02T07:50:28.876Z,95.65
2023-04-02T07:51:28.836Z,95.96
2023-04-02T07:52:28.804Z,95.34
2023-04-02T07:53:28.822Z,94.71
2023-04-02T07:54:28.794Z,95.54
2023-04-02T07:55:28.811Z,95.59
2023-04-02T07:56:28.799Z,95.07
2023-04-02T07:57:28.816Z,95.48
2023-04-02T07:58:28.775Z,95.65
2023-04-02T07:59:28.752Z,95.44
2023-04-02T08:00:28.899Z,95.65
2023-04-02T08:01:28.818Z,95.69
2023-04-02T08:02:28.866Z,96.17
2023-04-02T08:03:29.022Z,95.48
2023-04-02T08:04:28.771Z,95.07
2023-04-02T08:05:28.703Z,95.38
2023-04-02T08:06:28.726Z,95.54
2023-04-02T08:07:28.692Z,95.28
2023-04-02T08:08:28.688Z,95.23
2023-04-02T08:09:28.671Z,95.17
2023-04-02T08:10:28.667Z,95.44
2023-04-02T08:11:31.557Z,95.34
2023-04-02T08:12:28.657Z,95.34
2023-04-02T08:13:28.644Z,94.61
2023-04-02T08:14:28.644Z,95.03
2023-04-02T08:15:28.633Z,95.23
2023-04-02T08:16:28.662Z,94.92
2023-04-02T08:17:28.664Z,93.62
2023-04-02T08:18:28.611Z,94.03
2023-04-02T08:19:28.610Z,93.68
2023-04-02T08:20:28.603Z,95.07
2023-04-02T08:21:28.612Z,95.65
2023-04-02T08:22:28.592Z,95.48
2023-04-02T08:23:28.615Z,94.92
2023-04-02T08:24:28.566Z,95.44
2023-04-02T08:25:28.563Z,95.03
2023-04-02T08:26:28.581Z,95.44
2023-04-02T08:27:28.562Z,95.44
2023-04-02T08:28:28.539Z,95.54
2023-04-02T08:29:28.540Z,94.34
2023-04-02T08:30:28.543Z,94.30
2023-04-02T08:31:28.564Z,95.23
2023-04-02T08:32:28.555Z,93.72
2023-04-02T08:33:28.573Z,93.41
2023-04-02T08:34:28.494Z,94.65
2023-04-02T08:35:28.486Z,94.24
2023-04-02T08:36:28.670Z,93.72
2023-04-02T08:37:28.474Z,94.03
2023-04-02T08:38:28.460Z,95.44
2023-04-02T08:39:29.481Z,94.96
2023-04-02T08:40:28.448Z,93.72
2023-04-02T08:41:28.476Z,93.82
2023-04-02T08:42:28.440Z,94.03
2023-04-02T08:43:28.438Z,94.55
2023-04-02T08:44:28.439Z,95.59
2023-04-02T08:45:28.406Z,95.38
2023-04-02T08:46:28.452Z,94.13
2023-04-02T08:47:28.429Z,93.51
2023-04-02T08:48:28.390Z,93.51
2023-04-02T08:49:28.387Z,94.24
2023-04-02T08:50:28.370Z,94.24
2023-04-02T08:51:28.401Z,93.30
2023-04-02T08:52:28.364Z,93.72
2023-04-02T08:53:28.351Z,93.62
2023-04-02T08:54:28.351Z,93.41
2023-04-02T08:55:28.339Z,93.82
2023-04-02T08:56:28.361Z,92.78
2023-04-02T08:57:28.383Z,93.82
2023-04-02T08:58:28.316Z,93.82
2023-04-02T08:59:28.314Z,93.20
2023-04-02T09:00:28.300Z,93.51
2023-04-02T09:01:28.348Z,93.62
2023-04-02T09:02:28.378Z,93.51
2023-04-02T09:03:28.323Z,92.57
2023-04-02T09:04:28.301Z,92.22
2023-04-02T09:05:28.261Z,92.05
2023-04-02T09:06:28.280Z,92.26
2023-04-02T09:07:28.242Z,92.05
2023-04-02T09:08:28.244Z,91.91
2023-04-02T09:09:28.256Z,91.74
2023-04-02T09:10:28.221Z,91.66
2023-04-02T09:11:28.218Z,91.66
2023-04-02T09:12:28.253Z,92.49
2023-04-02T09:13:28.202Z,91.66
2023-04-02T09:14:28.203Z,91.66
2023-04-02T09:15:28.195Z,91.03
2023-04-02T09:16:28.228Z,91.60
2023-04-02T09:17:28.524Z,91.76
2023-04-02T09:18:28.239Z,91.76
2023-04-02T09:19:28.160Z,92.28
2023-04-02T09:20:28.150Z,92.18
2023-04-02T09:21:28.141Z,91.76
2023-04-02T09:22:28.154Z,91.35
2023-04-02T09:23:28.128Z,91.24
2023-04-02T09:24:28.117Z,91.55
2023-04-02T09:25:28.135Z,92.49
2023-04-02T09:26:28.155Z,92.28
2023-04-02T09:27:28.131Z,92.18
2023-04-02T09:28:28.087Z,92.59
2023-04-02T09:29:28.075Z,92.76
2023-04-02T09:30:29.067Z,93.74
2023-04-02T09:31:28.104Z,93.53
2023-04-02T09:32:28.163Z,93.95
2023-04-02T09:33:28.057Z,92.59
2023-04-02T09:34:28.044Z,93.63
2023-04-02T09:35:28.036Z,93.43
2023-04-02T09:36:28.034Z,94.05
2023-04-02T09:37:29.052Z,93.84
2023-04-02T09:38:28.020Z,93.18
2023-04-02T09:39:28.014Z,93.63
2023-04-02T09:40:27.995Z,93.43
2023-04-02T09:41:27.999Z,93.84
2023-04-02T09:42:28.011Z,92.90
2023-04-02T09:43:27.977Z,93.12
2023-04-02T09:44:28.025Z,94.15
2023-04-02T09:45:27.960Z,93.74
2023-04-02T09:46:27.980Z,92.94
2023-04-02T09:47:28.030Z,92.63
2023-04-02T09:48:27.944Z,92.32
2023-04-02T09:49:27.926Z,93.43
2023-04-02T09:50:27.916Z,93.63
2023-04-02T09:51:27.929Z,94.26
2023-04-02T09:52:27.935Z,93.84
2023-04-02T09:53:27.933Z,93.84
2023-04-02T09:54:27.879Z,93.26
2023-04-02T09:55:27.873Z,93.53
2023-04-02T09:56:27.873Z,93.95
2023-04-02T09:57:27.918Z,93.95
2023-04-02T09:58:27.852Z,94.15
2023-04-02T09:59:27.861Z,94.67
2023-04-02T10:00:31.945Z,93.84
2023-04-02T10:01:28.939Z,95.09
2023-04-02T10:02:27.880Z,94.15
2023-04-02T10:03:27.841Z,93.32
2023-04-02T10:04:27.821Z,94.26
2023-04-02T10:05:40.003Z,93.88
2023-04-02T10:06:29.804Z,94.15
2023-04-02T10:07:27.808Z,93.47
2023-04-02T10:08:27.782Z,93.30
2023-04-02T10:09:27.753Z,94.03
2023-04-02T10:10:27.756Z,93.82
2023-04-02T10:11:36.578Z,94.96
2023-04-02T10:12:29.763Z,94.86
2023-04-02T10:13:27.729Z,94.28
2023-04-02T10:14:27.739Z,94.86
2023-04-02T10:15:27.742Z,95.17
2023-04-02T10:16:27.774Z,94.96
2023-04-02T10:17:27.751Z,94.03
2023-04-02T10:18:27.696Z,93.30
2023-04-02T10:19:27.682Z,93.41
2023-04-02T10:20:28.483Z,94.34
2023-04-02T10:21:27.673Z,92.57
2023-04-02T10:22:27.706Z,93.03
2023-04-02T10:23:27.666Z,93.45
2023-04-02T10:24:27.652Z,93.97
2023-04-02T10:25:27.636Z,93.14
2023-04-02T10:26:27.640Z,93.24
2023-04-02T10:27:27.635Z,93.60
2023-04-02T10:28:27.653Z,93.45
2023-04-02T10:29:27.610Z,93.35
2023-04-02T10:30:27.613Z,93.87
2023-04-02T10:31:27.641Z,93.35
2023-04-02T10:32:27.634Z,93.72
2023-04-02T10:33:27.607Z,93.62
2023-04-02T10:34:27.590Z,93.51
2023-04-02T10:35:27.626Z,92.94
2023-04-02T10:36:27.566Z,92.47
2023-04-02T10:37:37.155Z,92.26
2023-04-02T10:38:27.544Z,92.61
2023-04-02T10:39:27.541Z,92.05
2023-04-02T10:40:27.538Z,92.26
2023-04-02T10:41:27.548Z,91.85
2023-04-02T10:42:27.519Z,91.33
2023-04-02T10:43:27.534Z,91.43
2023-04-02T10:44:27.503Z,91.06
2023-04-02T10:45:27.490Z,91.43
2023-04-02T10:46:27.496Z,92.68
2023-04-02T10:47:27.534Z,91.12
2023-04-02T10:48:27.502Z,91.39
2023-04-02T10:49:27.520Z,90.97
2023-04-02T10:50:27.460Z,91.60
2023-04-02T10:51:27.504Z,90.66
2023-04-02T10:52:27.437Z,90.87
2023-04-02T10:53:27.455Z,90.77
2023-04-02T10:54:27.444Z,91.08
2023-04-02T10:55:27.417Z,91.43
2023-04-02T10:56:28.527Z,91.28
2023-04-02T10:57:27.433Z,91.18
2023-04-02T10:58:27.425Z,91.74
2023-04-02T10:59:27.379Z,91.60
2023-04-02T11:00:28.386Z,91.60
2023-04-02T11:01:27.381Z,92.22
2023-04-02T11:02:27.472Z,91.97
2023-04-02T11:03:27.475Z,91.49
2023-04-02T11:04:27.350Z,91.76
2023-04-02T11:05:27.444Z,92.43
2023-04-02T11:06:28.463Z,91.66
2023-04-02T11:07:27.358Z,92.01
2023-04-02T11:08:27.346Z,92.32
2023-04-02T11:09:27.317Z,93.16
2023-04-02T11:10:27.325Z,92.57
2023-04-02T11:11:27.316Z,93.82
2023-04-02T11:12:27.300Z,93.30
2023-04-02T11:13:27.318Z,93.41
2023-04-02T11:14:27.275Z,93.82
2023-04-02T11:15:27.272Z,93.82
2023-04-02T11:16:27.301Z,93.20
2023-04-02T11:17:27.308Z,93.03
2023-04-02T11:18:27.274Z,92.88
2023-04-02T11:19:27.232Z,92.36
2023-04-02T11:20:27.228Z,92.26
2023-04-02T11:21:27.227Z,92.57
2023-04-02T11:22:27.219Z,92.57
2023-04-02T11:23:27.266Z,91.74
2023-04-02T11:24:27.229Z,92.16
2023-04-02T11:25:27.204Z,92.47
2023-04-02T11:26:27.191Z,92.47
2023-04-02T11:27:27.198Z,92.05
2023-04-02T11:28:27.199Z,92.05
2023-04-02T11:29:27.174Z,91.53
2023-04-02T11:30:27.157Z,92.26
2023-04-02T11:31:27.246Z,91.43
2023-04-02T11:32:27.245Z,91.43
2023-04-02T11:33:36.540Z,91.85
2023-04-02T11:34:28.122Z,91.39
2023-04-02T11:35:27.133Z,90.97
2023-04-02T11:36:27.123Z,91.64
2023-04-02T11:37:27.105Z,91.43
2023-04-02T11:38:27.117Z,91.33
2023-04-02T11:39:27.088Z,91.53
2023-04-02T11:40:27.084Z,91.53
2023-04-02T11:41:27.069Z,91.70
2023-04-02T11:42:27.079Z,91.02
2023-04-02T11:43:27.088Z,90.91
2023-04-02T11:44:27.069Z,90.77
2023-04-02T11:45:27.063Z,89.83
2023-04-02T11:46:27.076Z,89.98
2023-04-02T11:47:27.068Z,90.87
2023-04-02T11:48:27.058Z,90.81
2023-04-02T11:49:27.021Z,91.12
2023-04-02T11:50:27.050Z,90.91
2023-04-02T11:51:27.011Z,90.70
2023-04-02T11:52:27.025Z,90.39
2023-04-02T11:53:27.012Z,90.29
2023-04-02T11:54:26.990Z,91.02
2023-04-02T11:55:26.970Z,91.43
2023-04-02T11:56:26.962Z,90.29
2023-04-02T11:57:26.988Z,89.77
2023-04-02T11:58:26.978Z,89.81
2023-04-02T11:59:26.928Z,89.92
2023-04-02T12:00:26.933Z,90.23
2023-04-02T12:01:26.923Z,90.19
2023-04-02T12:02:26.963Z,90.29
2023-04-02T12:03:26.905Z,90.60
2023-04-02T12:04:26.932Z,90.19
2023-04-02T12:05:26.985Z,90.19
2023-04-02T12:06:26.889Z,89.92
2023-04-02T12:07:26.895Z,89.98
2023-04-02T12:08:26.881Z,90.50
2023-04-02T12:09:26.898Z,89.94
2023-04-02T12:10:26.853Z,89.36
2023-04-02T12:11:26.850Z,88.21
2023-04-02T12:12:26.842Z,88.00
2023-04-02T12:13:26.828Z,88.00
2023-04-02T12:14:27.885Z,88.31
2023-04-02T12:15:26.825Z,88.00
2023-04-02T12:16:26.833Z,89.11
2023-04-02T12:17:26.822Z,88.73
2023-04-02T12:18:26.813Z,87.79
2023-04-02T12:19:26.876Z,88.31
2023-04-02T12:20:26.810Z,88.10
2023-04-02T12:21:26.881Z,88.00
2023-04-02T12:22:26.764Z,88.10
2023-04-02T12:23:26.787Z,88.21
2023-04-02T12:24:26.859Z,89.31
2023-04-02T12:25:26.774Z,87.69
2023-04-02T12:26:26.797Z,86.41
2023-04-02T12:27:26.734Z,86.93
2023-04-02T12:28:26.726Z,87.55
2023-04-02T12:29:26.802Z,87.86
2023-04-02T12:30:26.718Z,86.30
2023-04-02T12:31:26.885Z,85.16
2023-04-02T12:32:28.485Z,84.53
2023-04-02T12:33:26.681Z,85.05
2023-04-02T12:34:26.739Z,86.09
2023-04-02T12:35:26.670Z,86.51
2023-04-02T12:36:26.668Z,85.95
2023-04-02T12:37:26.661Z,85.95
2023-04-02T12:38:26.659Z,85.95
2023-04-02T12:39:28.358Z,84.84
2023-04-02T12:40:27.630Z,84.22
2023-04-02T12:41:26.633Z,84.01
2023-04-02T12:42:26.636Z,84.12
2023-04-02T12:43:26.622Z,84.12
2023-04-02T12:44:26.635Z,84.81
2023-04-02T12:45:29.155Z,85.43
2023-04-02T12:46:28.130Z,85.33
2023-04-02T12:47:26.644Z,84.60
2023-04-02T12:48:26.576Z,83.36
2023-04-02T12:49:26.602Z,82.94
2023-04-02T12:50:26.556Z,82.21
2023-04-02T12:51:28.469Z,82.11
2023-04-02T12:52:26.547Z,82.39